Terminal Aerodrome Forecast
Issued by NWS Dallas/Fort Worth, TX

Home | Current Version | Previous Version | Text Only | Print | Product List | Glossary On
Versions: 1 2 3 4 5 6 7 8 9 10 11 12 13 14 15 16 17 18 19 20 21 22 23 24 25 26 27 28 29 30 31 32 33
000
FTUS44 KFWD 010814 AAA
TAFDFW
TAF AMD
KDFW 010814Z 0108/0212 10006KT P6SM VCSH SCT090 OVC120
     FM011100 08006KT 5SM -DZ BR BKN015
     FM011500 12010KT P6SM BKN025 BKN060 OVC150
     FM012000 10010KT P6SM SHRA VCTS BKN040CB BKN150
     FM020300 09005KT 6SM -SHRA BKN040 BKN150=

USA.gov is the U.S. government's official web portal to all federal, state and local government web resources and services.